This is the latest recevied weather packets stored in our database for station/object KA1ROH. If no packets are shown the sender has not sent any weather packets the latest 10 day(s).
| Time | Temp. | Humidity | Pressure | Rain* | Wind** | Luminosity | Snow |
|---|---|---|---|---|---|---|---|
| 1778034368 | 14.44° C | 69% | 1006.8 hPa | 0 mm | - | - | - |
| 1778031303 | 15.56° C | 76% | 1006.8 hPa | 0 mm | - | - | - |
| 1778027668 | 17.78° C | 79% | 1004.7 hPa | 0 mm | - | - | - |
| 1778017995 | 20° C | 65% | 1003.7 hPa | 0 mm | - | - | - |
| 1778014929 | 18.33° C | 67% | 1002.7 hPa | 0 mm | - | - | - |
| 1778010723 | 15.56° C | 89% | 1002.7 hPa | 0.25 mm | - | - | - |
| 1778004592 | 22.78° C | 53% | 1000.3 hPa | 0 mm | - | - | - |
| 1778002760 | 24.44° C | 48% | 1000.3 hPa | 0 mm | - | - | - |
| 1777993656 | 22.78° C | 51% | 1002.4 hPa | 0 mm | - | - | - |
| 1777992455 | 21.67° C | 52% | 1002.4 hPa | 0 mm | - | - | - |
| 1777988850 | 19.44° C | 55% | 1003.4 hPa | 0 mm | - | - | - |
| 1777985847 | 18.33° C | 55% | 1003.4 hPa | 0 mm | - | - | - |
| 1777982212 | 16.67° C | 57% | 1003.4 hPa | 0 mm | - | - | - |
| 1777975543 | 16.11° C | 58% | 1003 hPa | 0 mm | - | - | - |
| 1777966439 | 16.67° C | 52% | 1003 hPa | 0 mm | - | - | - |
| 1777963405 | 16.67° C | 52% | 1003.4 hPa | 0 mm | - | - | - |
| 1777955471 | 16.11° C | 55% | 1003.4 hPa | 0 mm | - | - | - |
| 1777953069 | 15.56° C | 56% | 1003.7 hPa | 0 mm | - | - | - |
| 1777951267 | 16.11° C | 54% | 1003.7 hPa | 0 mm | - | - | - |
| 1777950666 | 16.11° C | 54% | 1003.7 hPa | 0 mm | - | - | - |
| 1777950065 | 16.67° C | 53% | 1003.7 hPa | 0 mm | - | - | - |
| 1777948264 | 15.56° C | 56% | 1004.1 hPa | 0 mm | - | - | - |
| 1777940361 | 16.67° C | 53% | 1003.7 hPa | 0 mm | - | - | - |
| 1777939128 | 18.33° C | 48% | 1003.4 hPa | 0 mm | - | - | - |
| 1777934861 | 21.11° C | 41% | 1002.7 hPa | 0 mm | - | - | - |
* Rain latest hour (hover to see other rain measurements)
** Current wind speed in m/s (hover to see current wind gust speed)